LGRX/GPA METAR and TAF weather

Enter ICAO airport designator
Station Type Date Time Source
LGRX METAR 2020/07/10 22:50 UTC NOAA

LGRX 102250Z 00000KT CAVOK 22/17 Q1013


Station Type Date Time Source
LGRX Decoded METAR 2020/07/10 22:50 UTC NOAA

Araxos Airport , Greece (LGRX) 38-09N 021-25E 12M
Jul 10, 2020 - 06:50 PM EDT / 2020.07.10 2250 UTC
Wind: Calm:0
Visibility: greater than 7 mile(s):0
Temperature: 71 F (22 C)
Dew Point: 62 F (17 C)
Relative Humidity: 73%
Pressure (altimeter): 29.91 in. Hg (1013 hPa)
ob: LGRX 102250Z 00000KT CAVOK 22/17 Q1013
cycle: 23

Station Type Date Time Source
LGRX TAF 2020/03/18 09:39 UTC NOAA

TAF LGRX 180800Z 1809/1821 33006KT 9999 FEW030
BECMG 1816/1818 07010KT

Example: see airport list